Corrour, United Kingdom
Current Conditions -  °F | °C
As of 11:50 PM on Monday 22 Dec 2014 (Local Time) from EGPE Reporting Station
Few Clouds Few Clouds  
Wind Chill:   Ceiling: Unl
Heat Index:   Visibility: 6mi
Dew Point:   Wind: 18mph
Humidity: 76%   Direction: 230°SW
Pressure: 29.5"   Gusts: 30mph
Location:  56.79°N, 4.6°W
Report Text: EGPE 222350Z AUTO 23016G26KT 9999 FEW031/// 06/02 Q0999
Loading
Personal Weather Stations






























Interactive Weather Map New forecast layout! Learn more

10-Day Weather Forecast

Advertisements
Track Severe Weather on mobile